createdAt,value
2023-11-23T00:01:25.126Z,46.80
2023-11-23T00:03:52.319Z,47.08
2023-11-23T00:06:19.713Z,43.85
2023-11-23T00:08:46.880Z,48.63
2023-11-23T00:11:14.283Z,46.42
2023-11-23T00:13:41.693Z,46.88
2023-11-23T00:16:09.458Z,46.65
2023-11-23T00:18:36.669Z,49.70
2023-11-23T00:21:04.244Z,45.78
2023-11-23T00:23:33.201Z,49.40
2023-11-23T00:26:00.665Z,50.72
2023-11-23T00:28:27.824Z,46.00
2023-11-23T00:30:55.252Z,47.30
2023-11-23T00:33:22.527Z,46.40
2023-11-23T00:35:50.032Z,45.00
2023-11-23T00:38:20.226Z,45.67
2023-11-23T00:40:47.668Z,44.47
2023-11-23T00:43:15.126Z,45.40
2023-11-23T00:45:42.600Z,44.03
2023-11-23T00:48:09.942Z,44.90
2023-11-23T00:50:37.579Z,46.10
2023-11-23T00:53:04.828Z,39.20
2023-11-23T00:55:32.355Z,39.30
2023-11-23T00:58:00.764Z,42.00
2023-11-23T01:00:30.366Z,43.05
2023-11-23T01:02:57.673Z,39.63
2023-11-23T01:05:25.238Z,41.63
2023-11-23T01:07:52.317Z,43.67
2023-11-23T01:10:19.835Z,41.70
2023-11-23T01:12:47.107Z,41.33
2023-11-23T01:15:14.665Z,41.25
2023-11-23T01:17:41.952Z,42.17
2023-11-23T01:20:10.167Z,37.92
2023-11-23T01:22:37.723Z,41.30
2023-11-23T01:25:10.012Z,40.38
2023-11-23T01:27:37.504Z,38.85
2023-11-23T01:30:09.319Z,36.92
2023-11-23T01:32:36.549Z,40.00
2023-11-23T01:35:04.506Z,41.22
2023-11-23T01:37:31.792Z,36.75
2023-11-23T01:39:59.339Z,39.72
2023-11-23T01:42:26.510Z,36.15
2023-11-23T01:44:53.984Z,40.72
2023-11-23T01:47:22.429Z,37.65
2023-11-23T01:49:52.048Z,35.35
2023-11-23T01:52:19.242Z,36.50
2023-11-23T01:54:46.675Z,34.45
2023-11-23T01:57:14.017Z,36.47
2023-11-23T01:59:41.514Z,33.97
2023-11-23T02:02:08.959Z,37.50
2023-11-23T02:04:36.487Z,35.00
2023-11-23T02:07:03.947Z,34.72
2023-11-23T02:09:32.211Z,40.53
2023-11-23T02:11:59.550Z,35.80
2023-11-23T02:14:27.046Z,35.65
2023-11-23T02:16:54.819Z,35.08
2023-11-23T02:19:22.488Z,34.67
2023-11-23T02:21:50.756Z,38.85
2023-11-23T02:24:18.191Z,37.08
2023-11-23T02:26:45.458Z,37.15
2023-11-23T02:29:13.033Z,39.78
2023-11-23T02:31:40.247Z,36.60
2023-11-23T02:34:08.190Z,35.83
2023-11-23T02:36:35.332Z,35.83
2023-11-23T02:39:02.838Z,32.75
2023-11-23T02:41:30.068Z,37.00
2023-11-23T02:43:57.521Z,36.28
2023-11-23T02:46:24.777Z,37.88
2023-11-23T02:48:52.244Z,33.90
2023-11-23T02:51:20.572Z,37.47
2023-11-23T02:53:49.533Z,35.60
2023-11-23T02:56:16.835Z,34.53
2023-11-23T02:58:44.341Z,34.25
2023-11-23T03:01:11.574Z,33.42
2023-11-23T03:03:39.946Z,33.45
2023-11-23T03:06:08.650Z,37.88
2023-11-23T03:08:36.194Z,36.17
2023-11-23T03:11:05.911Z,34.97
2023-11-23T03:13:33.507Z,33.72
2023-11-23T03:16:00.680Z,36.05
2023-11-23T03:18:28.193Z,34.72
2023-11-23T03:20:55.486Z,35.08
2023-11-23T03:23:23.086Z,36.00
2023-11-23T03:25:50.280Z,30.65
2023-11-23T03:28:17.651Z,37.55
2023-11-23T03:30:44.784Z,33.63
2023-11-23T03:33:12.375Z,40.67
2023-11-23T03:35:40.049Z,38.20
2023-11-23T03:38:08.803Z,36.67
2023-11-23T03:40:36.421Z,38.15
2023-11-23T03:43:04.409Z,36.35
2023-11-23T03:45:32.044Z,38.47
2023-11-23T03:48:00.167Z,34.45
2023-11-23T03:50:27.434Z,33.63
2023-11-23T03:52:55.016Z,37.03
2023-11-23T03:55:23.374Z,34.78
2023-11-23T03:57:51.242Z,35.38
2023-11-23T04:00:18.656Z,37.03
2023-11-23T04:02:47.506Z,34.42
2023-11-23T04:05:19.069Z,36.95
2023-11-23T04:07:50.907Z,39.90
2023-11-23T04:10:19.130Z,36.38
2023-11-23T04:12:49.130Z,34.53
2023-11-23T04:15:17.711Z,40.22
2023-11-23T04:17:45.554Z,36.17
2023-11-23T04:20:13.006Z,40.08
2023-11-23T04:22:40.562Z,37.17
2023-11-23T04:25:08.055Z,40.58
2023-11-23T04:27:35.583Z,43.33
2023-11-23T04:30:02.838Z,38.72
2023-11-23T04:32:30.431Z,36.05
2023-11-23T04:34:58.013Z,38.20
2023-11-23T04:37:25.554Z,41.88
2023-11-23T04:39:53.014Z,38.05
2023-11-23T04:42:21.047Z,38.20
2023-11-23T04:44:48.347Z,36.53
2023-11-23T04:47:15.885Z,35.67
2023-11-23T04:49:43.087Z,37.75
2023-11-23T04:52:10.554Z,39.65
2023-11-23T04:54:37.797Z,36.40
2023-11-23T04:57:05.842Z,38.00
2023-11-23T04:59:33.047Z,37.50
2023-11-23T05:02:00.514Z,35.50
2023-11-23T05:04:27.981Z,38.78
2023-11-23T05:06:57.352Z,43.45
2023-11-23T05:09:24.651Z,36.28
2023-11-23T05:11:52.254Z,39.20
2023-11-23T05:14:19.688Z,36.42
2023-11-23T05:16:47.707Z,36.85
2023-11-23T05:19:21.583Z,37.33
2023-11-23T05:21:55.409Z,35.85
2023-11-23T05:24:22.579Z,36.55
2023-11-23T05:26:50.125Z,34.70
2023-11-23T05:29:18.537Z,32.00
2023-11-23T05:31:45.985Z,37.72
2023-11-23T05:34:13.083Z,37.28
2023-11-23T05:36:40.538Z,37.20
2023-11-23T05:39:07.766Z,34.30
2023-11-23T05:41:35.300Z,32.83
2023-11-23T05:44:02.423Z,37.55
2023-11-23T05:46:31.792Z,34.17
2023-11-23T05:48:59.130Z,31.75
2023-11-23T05:51:26.626Z,35.42
2023-11-23T05:53:53.804Z,34.50
2023-11-23T05:56:22.037Z,36.00
2023-11-23T05:58:49.724Z,34.53
2023-11-23T06:01:18.069Z,35.60
2023-11-23T06:03:45.415Z,34.58
2023-11-23T06:06:24.050Z,30.63
2023-11-23T06:08:51.863Z,34.70
2023-11-23T06:11:19.746Z,31.08
2023-11-23T06:13:47.308Z,30.98
2023-11-23T06:16:15.862Z,36.45
2023-11-23T06:18:43.663Z,32.90
2023-11-23T06:21:11.558Z,34.78
2023-11-23T06:23:39.258Z,34.50
2023-11-23T06:26:08.578Z,32.47
2023-11-23T06:28:35.812Z,32.47
2023-11-23T06:31:03.387Z,37.65
2023-11-23T06:33:30.631Z,34.05
2023-11-23T06:35:58.205Z,35.72
2023-11-23T06:38:25.537Z,34.58
2023-11-23T06:40:53.566Z,37.10
2023-11-23T06:43:20.861Z,33.67
2023-11-23T06:45:48.434Z,35.45
2023-11-23T06:48:15.673Z,35.40
2023-11-23T06:50:43.350Z,36.65
2023-11-23T06:53:10.769Z,35.85
2023-11-23T06:55:38.190Z,35.72
2023-11-23T06:58:07.994Z,36.40
2023-11-23T07:00:36.308Z,39.78
2023-11-23T07:03:03.666Z,38.63
2023-11-23T07:05:31.144Z,35.60
2023-11-23T07:07:58.431Z,37.80
2023-11-23T07:10:25.790Z,37.40
2023-11-23T07:12:52.981Z,38.55
2023-11-23T07:15:20.568Z,37.30
2023-11-23T07:17:49.107Z,40.00
2023-11-23T07:20:16.931Z,40.28
2023-11-23T07:22:44.060Z,33.05
2023-11-23T07:25:11.999Z,37.08
2023-11-23T07:27:39.474Z,35.88
2023-11-23T07:30:08.333Z,38.40
2023-11-23T07:32:37.261Z,37.55
2023-11-23T07:35:06.506Z,35.53
2023-11-23T07:37:35.520Z,37.92
2023-11-23T07:40:15.019Z,37.28
2023-11-23T07:42:44.529Z,38.00
2023-11-23T07:45:13.220Z,37.33
2023-11-23T07:47:45.521Z,37.97
2023-11-23T07:50:13.571Z,35.45
2023-11-23T07:52:40.748Z,37.55
2023-11-23T07:55:11.204Z,40.58
2023-11-23T07:57:38.651Z,38.38
2023-11-23T08:00:08.961Z,38.78
2023-11-23T08:02:36.591Z,35.10
2023-11-23T08:05:06.310Z,38.40
2023-11-23T08:07:33.569Z,36.22
2023-11-23T08:10:01.051Z,36.70
2023-11-23T08:12:28.209Z,35.83
2023-11-23T08:14:55.705Z,35.60
2023-11-23T08:17:22.855Z,37.45
2023-11-23T08:19:52.136Z,38.95
2023-11-23T08:22:21.970Z,39.45
2023-11-23T08:24:49.637Z,44.13
2023-11-23T08:27:16.762Z,40.92
2023-11-23T08:29:44.679Z,40.28
2023-11-23T08:32:14.143Z,38.63
2023-11-23T08:34:44.723Z,38.33
2023-11-23T08:37:12.257Z,38.63
2023-11-23T08:39:41.357Z,39.20
2023-11-23T08:42:08.942Z,37.90
2023-11-23T08:44:37.137Z,37.95
2023-11-23T08:47:04.670Z,35.15
2023-11-23T08:49:32.713Z,36.75
2023-11-23T08:51:59.854Z,39.42
2023-11-23T08:54:27.346Z,36.85
2023-11-23T08:56:54.657Z,38.60
2023-11-23T08:59:22.219Z,33.38
2023-11-23T09:01:57.116Z,38.50
2023-11-23T09:04:40.050Z,34.30
2023-11-23T09:07:10.313Z,36.15
2023-11-23T09:09:37.761Z,37.67
2023-11-23T09:12:05.367Z,37.75
2023-11-23T09:14:42.823Z,36.58
2023-11-23T09:17:16.022Z,37.33
2023-11-23T09:19:43.617Z,42.65
2023-11-23T09:22:12.105Z,35.22
2023-11-23T09:24:40.495Z,35.53
2023-11-23T09:27:07.978Z,36.08
2023-11-23T09:29:35.885Z,34.53
2023-11-23T09:32:04.662Z,35.30
2023-11-23T09:34:32.506Z,34.47
2023-11-23T09:36:59.590Z,36.10
2023-11-23T09:39:27.153Z,32.53
2023-11-23T09:42:01.221Z,35.58
2023-11-23T09:44:28.651Z,34.33
2023-11-23T09:46:57.281Z,32.58
2023-11-23T09:49:26.136Z,35.22
2023-11-23T09:51:53.637Z,32.38
2023-11-23T09:54:23.322Z,37.17
2023-11-23T09:56:51.038Z,34.58
2023-11-23T09:59:18.707Z,30.23
2023-11-23T10:01:49.388Z,35.50
2023-11-23T10:04:19.972Z,35.08
2023-11-23T10:06:47.593Z,34.83
2023-11-23T10:09:18.661Z,36.28
2023-11-23T10:11:48.168Z,35.30
2023-11-23T10:14:17.261Z,36.13
2023-11-23T10:16:44.572Z,33.38
2023-11-23T10:19:24.631Z,33.60
2023-11-23T10:21:56.338Z,31.52
2023-11-23T10:24:25.355Z,30.95
2023-11-23T10:26:54.107Z,29.27
2023-11-23T10:29:29.640Z,34.15
2023-11-23T10:32:02.967Z,31.27
2023-11-23T10:34:31.370Z,32.17
2023-11-23T10:37:00.467Z,28.02
2023-11-23T10:39:30.023Z,27.83
2023-11-23T10:41:58.613Z,28.98
2023-11-23T10:44:31.007Z,30.23
2023-11-23T10:47:04.540Z,32.10
2023-11-23T10:49:36.045Z,28.23
2023-11-23T10:52:05.066Z,33.22
2023-11-23T10:54:33.331Z,28.15
2023-11-23T10:57:05.115Z,29.35
2023-11-23T10:59:33.795Z,30.77
2023-11-23T11:02:02.765Z,31.63
2023-11-23T11:04:30.838Z,31.08
2023-11-23T11:06:58.804Z,32.70
2023-11-23T11:09:30.622Z,30.05
2023-11-23T11:12:02.035Z,29.77
2023-11-23T11:14:36.949Z,31.05
2023-11-23T11:17:08.581Z,30.20
2023-11-23T11:19:49.082Z,30.88
2023-11-23T11:22:17.047Z,25.90
2023-11-23T11:24:47.289Z,28.42
2023-11-23T11:27:14.556Z,27.95
2023-11-23T11:29:54.382Z,29.40
2023-11-23T11:32:24.455Z,29.73
2023-11-23T11:35:02.215Z,29.23
2023-11-23T11:37:33.147Z,27.23
2023-11-23T11:40:04.766Z,32.92
2023-11-23T11:42:32.125Z,28.80
2023-11-23T11:44:59.868Z,26.75
2023-11-23T11:47:29.113Z,27.58
2023-11-23T11:49:58.805Z,25.70
2023-11-23T11:52:27.837Z,26.45
2023-11-23T11:54:56.330Z,26.95
2023-11-23T11:57:23.507Z,26.25
2023-11-23T11:59:52.432Z,26.75
2023-11-23T12:02:20.460Z,26.60
2023-11-23T12:04:59.037Z,25.42
2023-11-23T12:07:26.685Z,25.88
2023-11-23T12:09:57.279Z,26.98
2023-11-23T12:12:24.540Z,25.27
2023-11-23T12:14:52.403Z,26.60
2023-11-23T12:17:19.727Z,23.35
2023-11-23T12:19:53.073Z,29.25
2023-11-23T12:22:28.259Z,30.00
2023-11-23T12:24:57.631Z,25.02
2023-11-23T12:27:28.565Z,26.38
2023-11-23T12:29:56.200Z,28.08
2023-11-23T12:32:23.998Z,25.17
2023-11-23T12:34:51.507Z,26.13
2023-11-23T12:37:20.449Z,24.95
2023-11-23T12:39:51.434Z,23.60
2023-11-23T12:42:18.823Z,23.90
2023-11-23T12:44:47.770Z,29.45
2023-11-23T12:47:15.303Z,26.98
2023-11-23T12:49:44.051Z,27.30
2023-11-23T12:52:11.209Z,28.17
2023-11-23T12:54:38.755Z,22.70
2023-11-23T12:57:06.000Z,27.25
2023-11-23T12:59:33.560Z,23.63
2023-11-23T13:02:00.923Z,26.25
2023-11-23T13:04:31.191Z,26.15
2023-11-23T13:06:59.092Z,23.73
2023-11-23T13:09:28.759Z,28.58
2023-11-23T13:11:58.317Z,25.40
2023-11-23T13:14:25.930Z,22.55
2023-11-23T13:16:54.051Z,22.15
2023-11-23T13:19:30.139Z,23.08
2023-11-23T13:22:05.561Z,21.52
2023-11-23T13:24:34.046Z,21.45
2023-11-23T13:27:02.675Z,26.00
2023-11-23T13:29:30.375Z,26.17
2023-11-23T13:31:59.293Z,26.48
2023-11-23T13:34:27.667Z,26.52
2023-11-23T13:36:55.044Z,21.50
2023-11-23T13:39:22.898Z,23.40
2023-11-23T13:41:50.656Z,19.67
2023-11-23T13:44:19.270Z,21.23
2023-11-23T13:46:46.657Z,20.48
2023-11-23T13:49:15.006Z,22.58
2023-11-23T13:51:42.227Z,19.10
2023-11-23T13:54:10.957Z,19.88
2023-11-23T13:56:41.466Z,20.00
2023-11-23T13:59:12.390Z,19.58
2023-11-23T14:01:40.436Z,18.73
2023-11-23T14:04:08.430Z,21.63
2023-11-23T14:06:35.832Z,22.05
2023-11-23T14:09:05.025Z,26.70
2023-11-23T14:11:32.379Z,22.48
2023-11-23T14:14:01.769Z,20.90
2023-11-23T14:16:30.936Z,22.08
2023-11-23T14:18:58.571Z,19.25
2023-11-23T14:21:28.386Z,19.90
2023-11-23T14:23:57.207Z,24.42
2023-11-23T14:26:24.415Z,24.88
2023-11-23T14:28:52.261Z,23.90
2023-11-23T14:31:23.756Z,21.77
2023-11-23T14:33:56.291Z,26.92
2023-11-23T14:36:23.770Z,26.00
2023-11-23T14:38:52.812Z,27.27
2023-11-23T14:41:23.747Z,24.58
2023-11-23T14:43:51.530Z,23.40
2023-11-23T14:46:18.944Z,19.45
2023-11-23T14:48:46.637Z,22.98
2023-11-23T14:51:13.843Z,20.33
2023-11-23T14:53:41.279Z,23.10
2023-11-23T14:56:10.810Z,23.55
2023-11-23T14:58:38.569Z,21.08
2023-11-23T15:01:07.394Z,23.08
2023-11-23T15:03:36.366Z,25.35
2023-11-23T15:06:03.978Z,22.63
2023-11-23T15:08:31.829Z,24.10
2023-11-23T15:10:59.525Z,21.42
2023-11-23T15:13:32.813Z,21.27
2023-11-23T15:16:05.865Z,21.48
2023-11-23T15:18:34.657Z,22.45
2023-11-23T15:21:02.198Z,20.20
2023-11-23T15:23:30.927Z,18.30
2023-11-23T15:25:58.370Z,23.75
2023-11-23T15:28:26.989Z,22.48
2023-11-23T15:30:54.370Z,21.92
2023-11-23T15:33:22.041Z,21.13
2023-11-23T15:35:49.587Z,22.65
2023-11-23T15:38:17.433Z,25.55
2023-11-23T15:40:53.711Z,22.08
2023-11-23T15:43:21.210Z,20.42
2023-11-23T15:45:48.611Z,21.55
2023-11-23T15:48:16.459Z,22.45
2023-11-23T15:50:43.677Z,18.80
2023-11-23T15:53:11.352Z,21.63
2023-11-23T15:55:39.575Z,20.10
2023-11-23T15:58:07.153Z,23.38
2023-11-23T16:00:39.384Z,16.17
2023-11-23T16:03:06.874Z,17.98
2023-11-23T16:05:34.886Z,17.38
2023-11-23T16:08:02.481Z,18.00
2023-11-23T16:10:29.812Z,18.77
2023-11-23T16:12:58.127Z,17.02
2023-11-23T16:15:25.630Z,19.23
2023-11-23T16:17:53.204Z,18.25
2023-11-23T16:20:21.896Z,18.63
2023-11-23T16:22:50.832Z,18.17
2023-11-23T16:25:18.233Z,20.33
2023-11-23T16:27:46.273Z,21.48
2023-11-23T16:30:15.262Z,15.57
2023-11-23T16:32:43.678Z,17.05
2023-11-23T16:35:12.603Z,16.00
2023-11-23T16:37:40.308Z,16.95
2023-11-23T16:40:11.710Z,17.00
2023-11-23T16:42:43.449Z,17.75
2023-11-23T16:45:12.997Z,18.05
2023-11-23T16:47:42.628Z,18.58
2023-11-23T16:50:11.462Z,16.52
2023-11-23T16:52:38.947Z,14.15
2023-11-23T16:55:09.083Z,15.48
2023-11-23T16:57:37.294Z,17.75
2023-11-23T17:00:05.390Z,14.60
2023-11-23T17:02:33.019Z,14.65
2023-11-23T17:05:09.340Z,12.93
2023-11-23T17:07:38.304Z,16.13
2023-11-23T17:10:08.843Z,12.75
2023-11-23T17:12:37.172Z,15.32
2023-11-23T17:15:07.746Z,16.05
2023-11-23T17:17:35.938Z,14.18
2023-11-23T17:20:04.060Z,16.30
2023-11-23T17:22:34.195Z,14.50
2023-11-23T17:25:03.151Z,15.25
2023-11-23T17:27:30.663Z,16.00
2023-11-23T17:29:58.208Z,16.85
2023-11-23T17:32:25.377Z,13.98
2023-11-23T17:34:52.903Z,16.38
2023-11-23T17:37:20.073Z,13.75
2023-11-23T17:39:47.538Z,15.90
2023-11-23T17:42:14.899Z,12.60
2023-11-23T17:44:42.427Z,12.95
2023-11-23T17:47:09.678Z,14.32
2023-11-23T17:49:37.158Z,12.82
2023-11-23T17:52:04.689Z,11.20
2023-11-23T17:54:32.222Z,12.65
2023-11-23T17:56:59.544Z,12.98
2023-11-23T17:59:34.852Z,13.10
2023-11-23T18:02:19.239Z,14.30
2023-11-23T18:04:47.401Z,12.55
2023-11-23T18:07:15.029Z,14.25
2023-11-23T18:09:43.532Z,12.52
2023-11-23T18:12:11.160Z,11.50
2023-11-23T18:14:38.707Z,11.77
2023-11-23T18:17:08.397Z,13.77
2023-11-23T18:19:36.332Z,16.30
2023-11-23T18:22:03.675Z,13.82
2023-11-23T18:24:31.930Z,12.18
2023-11-23T18:27:00.865Z,13.15
2023-11-23T18:29:29.291Z,11.80
2023-11-23T18:31:56.657Z,18.38
2023-11-23T18:34:24.290Z,12.07
2023-11-23T18:36:53.047Z,14.68
2023-11-23T18:39:24.232Z,13.10
2023-11-23T18:41:51.729Z,13.98
2023-11-23T18:44:19.222Z,14.57
2023-11-23T18:46:46.539Z,14.00
2023-11-23T18:49:14.615Z,13.20
2023-11-23T18:51:41.936Z,12.38
2023-11-23T18:54:09.540Z,11.93
2023-11-23T18:56:38.928Z,11.60
2023-11-23T18:59:07.461Z,10.90
2023-11-23T19:01:34.885Z,14.38
2023-11-23T19:04:04.312Z,13.52
2023-11-23T19:06:33.125Z,16.00
2023-11-23T19:09:01.337Z,13.43
2023-11-23T19:11:28.703Z,11.85
2023-11-23T19:13:57.107Z,12.05
2023-11-23T19:16:24.458Z,15.38
2023-11-23T19:18:53.189Z,13.73
2023-11-23T19:21:21.366Z,14.38
2023-11-23T19:23:49.256Z,12.88
2023-11-23T19:26:17.496Z,13.75
2023-11-23T19:28:46.469Z,15.70
2023-11-23T19:31:14.550Z,14.85
2023-11-23T19:33:42.583Z,14.13
2023-11-23T19:36:11.190Z,16.15
2023-11-23T19:38:43.891Z,14.75
2023-11-23T19:41:12.803Z,15.27
2023-11-23T19:43:40.852Z,15.30
2023-11-23T19:46:08.542Z,13.18
2023-11-23T19:48:36.641Z,16.65
2023-11-23T19:51:06.417Z,14.65
2023-11-23T19:53:40.641Z,13.80
2023-11-23T19:56:09.526Z,15.18
2023-11-23T19:58:38.601Z,13.80
2023-11-23T20:01:06.347Z,14.60
2023-11-23T20:03:34.218Z,15.20
2023-11-23T20:06:02.272Z,15.32
2023-11-23T20:08:32.324Z,11.00
2023-11-23T20:10:59.929Z,11.48
2023-11-23T20:13:27.622Z,14.02
2023-11-23T20:15:54.934Z,12.05
2023-11-23T20:18:23.020Z,12.98
2023-11-23T20:20:50.220Z,12.52
2023-11-23T20:23:17.797Z,13.15
2023-11-23T20:25:44.990Z,10.73
2023-11-23T20:28:13.602Z,12.40
2023-11-23T20:30:40.948Z,16.30
2023-11-23T20:33:09.501Z,13.77
2023-11-23T20:35:39.309Z,11.18
2023-11-23T20:38:06.757Z,10.48
2023-11-23T20:40:34.125Z,14.18
2023-11-23T20:43:01.894Z,10.70
2023-11-23T20:45:29.320Z,10.15
2023-11-23T20:47:56.980Z,10.95
2023-11-23T20:50:30.778Z,12.32
2023-11-23T20:52:58.320Z,10.68
2023-11-23T20:55:25.695Z,10.07
2023-11-23T20:57:53.959Z,10.10
2023-11-23T21:00:22.176Z,9.90
2023-11-23T21:02:50.126Z,10.73
2023-11-23T21:05:18.189Z,11.40
2023-11-23T21:07:45.864Z,10.40
2023-11-23T21:10:13.504Z,11.18
2023-11-23T21:12:41.969Z,12.40
2023-11-23T21:15:09.484Z,11.90
2023-11-23T21:17:37.752Z,8.57
2023-11-23T21:20:10.396Z,10.50
2023-11-23T21:22:37.935Z,10.15
2023-11-23T21:25:05.648Z,8.95
2023-11-23T21:27:38.556Z,9.85
2023-11-23T21:30:09.891Z,10.05
2023-11-23T21:32:38.296Z,12.40
2023-11-23T21:35:05.958Z,10.75
2023-11-23T21:37:33.406Z,12.73
2023-11-23T21:40:00.819Z,14.70
2023-11-23T21:42:28.521Z,10.27
2023-11-23T21:44:56.004Z,11.80
2023-11-23T21:47:23.611Z,9.43
2023-11-23T21:49:51.408Z,10.73
2023-11-23T21:52:19.414Z,13.55
2023-11-23T21:54:53.594Z,14.13
2023-11-23T21:57:28.750Z,13.13
2023-11-23T21:59:56.280Z,14.57
2023-11-23T22:02:23.830Z,13.20
2023-11-23T22:04:51.021Z,13.02
2023-11-23T22:07:18.577Z,15.73
2023-11-23T22:09:45.761Z,14.43
2023-11-23T22:12:13.317Z,14.85
2023-11-23T22:14:40.440Z,15.45
2023-11-23T22:17:08.519Z,14.77
2023-11-23T22:19:36.389Z,13.93
2023-11-23T22:22:06.555Z,16.92
2023-11-23T22:24:34.525Z,17.08
2023-11-23T22:27:02.820Z,17.35
2023-11-23T22:29:29.946Z,13.93
2023-11-23T22:31:59.187Z,12.05
2023-11-23T22:34:26.665Z,13.13
2023-11-23T22:36:56.019Z,16.10
2023-11-23T22:39:23.727Z,13.88
2023-11-23T22:41:51.497Z,13.63
2023-11-23T22:44:19.051Z,12.80
2023-11-23T22:46:46.652Z,10.98
2023-11-23T22:49:14.379Z,14.13
2023-11-23T22:51:42.103Z,9.57
2023-11-23T22:54:10.880Z,12.80
2023-11-23T22:56:38.369Z,9.85
2023-11-23T22:59:06.706Z,9.13
2023-11-23T23:01:34.304Z,10.05
2023-11-23T23:04:01.504Z,13.55
2023-11-23T23:06:29.540Z,9.48
2023-11-23T23:08:56.717Z,9.57
2023-11-23T23:11:25.117Z,8.27
2023-11-23T23:13:52.381Z,9.65
2023-11-23T23:16:20.553Z,9.57
2023-11-23T23:18:48.278Z,7.45
2023-11-23T23:21:15.808Z,8.32
2023-11-23T23:23:42.888Z,7.55
2023-11-23T23:26:10.336Z,6.43
2023-11-23T23:28:37.469Z,6.07
2023-11-23T23:31:05.090Z,6.47
2023-11-23T23:33:32.327Z,7.75
2023-11-23T23:36:00.182Z,7.50
2023-11-23T23:38:27.259Z,7.88
2023-11-23T23:40:55.343Z,5.65
2023-11-23T23:43:23.938Z,9.75
2023-11-23T23:45:51.481Z,7.80
2023-11-23T23:48:19.309Z,8.38
2023-11-23T23:50:46.721Z,11.45
2023-11-23T23:53:14.446Z,9.88
2023-11-23T23:55:43.018Z,8.02
2023-11-23T23:58:10.519Z,8.30
